This is the latest recevied weather packets stored in our database for station/object KD9IXX-13. If no packets are shown the sender has not sent any weather packets the latest 10 day(s).
| Time | Temp. | Humidity | Pressure | Rain* | Wind** | Luminosity | Snow |
|---|---|---|---|---|---|---|---|
| 1787523304 | 22.78° C | 60% | 1017.8 hPa | 0 mm | - | 226 W/m² | - |
| 1787522102 | 22.22° C | 57% | 1017.9 hPa | 0 mm | - | 98 W/m² | - |
| 1787521503 | 23.33° C | 54% | 1017.8 hPa | 0 mm | - | 121 W/m² | - |
| 1787521201 | 23.89° C | 54% | 1018 hPa | 0 mm | - | 145 W/m² | - |
| 1787520902 | 23.89° C | 53% | 1017.9 hPa | 0 mm | - | 115 W/m² | - |
| 1787520302 | 23.33° C | 54% | 1017.9 hPa | 0 mm | - | 380 W/m² | - |
| 1787519702 | 23.33° C | 54% | 1018 hPa | 0 mm | - | 107 W/m² | - |
| 1787519102 | 23.33° C | 53% | 1017.9 hPa | 0 mm | - | 152 W/m² | - |
| 1787517602 | 24.44° C | 54% | 1018.2 hPa | 0 mm | - | 194 W/m² | - |
| 1787516102 | 25° C | 48% | 1018.3 hPa | 0 mm | - | 622 W/m² | - |
| 1787515202 | 24.44° C | 54% | 1018.2 hPa | 0 mm | - | 622 W/m² | - |
| 1787514902 | 24.44° C | 51% | 1018.2 hPa | 0 mm | - | 252 W/m² | - |
| 1787514601 | 25.56° C | 47% | 1018.3 hPa | 0 mm | - | 707 W/m² | - |
| 1787514302 | 25° C | 50% | 1018.3 hPa | 0 mm | - | 708 W/m² | - |
| 1787514002 | 25° C | 51% | 1018.2 hPa | 0 mm | - | 678 W/m² | - |
| 1787513701 | 24.44° C | 51% | 1018.4 hPa | 0 mm | - | 631 W/m² | - |
| 1787513402 | 25° C | 50% | 1018.3 hPa | 0 mm | - | 642 W/m² | - |
| 1787512802 | 25.56° C | 47% | 1018.4 hPa | 0 mm | - | 662 W/m² | - |
| 1787511602 | 23.89° C | 52% | 1018.6 hPa | 0 mm | - | 699 W/m² | - |
| 1787511301 | 24.44° C | 52% | 1018.5 hPa | 0 mm | - | 648 W/m² | - |
| 1787511002 | 25° C | 52% | 1018.5 hPa | 0 mm | - | 690 W/m² | - |
| 1787510702 | 24.44° C | 53% | 1018.6 hPa | 0 mm | - | 688 W/m² | - |
| 1787510102 | 24.44° C | 52% | 1018.4 hPa | 0 mm | - | 712 W/m² | - |
| 1787509502 | 24.44° C | 48% | 1018.4 hPa | 0 mm | - | 669 W/m² | - |
| 1787509202 | 23.89° C | 51% | 1018.6 hPa | 0 mm | - | 639 W/m² | - |
* Rain latest hour (hover to see other rain measurements)
** Current wind speed in m/s (hover to see current wind gust speed)